Time;durP1;ratioP1;P1;durP2;ratioP2;P2;SDS_P1;SDS_P2;PMS_P1;PMS_P2;Temp;Humidity;BMP_temperature;BMP_pressure;BME280_temperature;BME280_humidity;BME280_pressure;Samples;Min_cycle;Max_cycle;Signal;HPM_P1;HPM_P2
2022/12/30 00:00:51;;;;;;;1.50;0.80;;;;;;;9.89;95.78;98012.00;4075840;29;20653;-86
2022/12/30 00:02:54;;;;;;;1.53;1.10;;;;;;;9.87;95.67;98007.81;4109507;28;20647;-86
2022/12/30 00:04:57;;;;;;;2.77;1.70;;;;;;;9.84;96.11;97998.44;4103246;28;20644;-86
2022/12/30 00:07:01;;;;;;;2.43;1.10;;;;;;;9.82;95.37;97993.44;4073951;29;20681;-86
2022/12/30 00:09:05;;;;;;;2.17;1.10;;;;;;;9.78;95.94;97995.41;4076871;29;20674;-86
2022/12/30 00:11:09;;;;;;;1.33;0.77;;;;;;;9.78;95.53;97992.00;4090753;28;20640;-86
2022/12/30 00:38:07;;;;;;;1.30;0.93;;;;;;;9.52;97.39;98017.13;4092886;28;21189;-86
2022/12/30 00:40:13;;;;;;;1.50;0.70;;;;;;;9.52;97.54;98017.13;4088145;28;20644;-86
2022/12/30 00:44:36;;;;;;;1.50;0.80;;;;;;;9.53;97.16;98012.75;4074126;29;20639;-86
2022/12/30 00:46:41;;;;;;;1.63;1.10;;;;;;;9.56;97.11;98017.75;4101515;28;20632;-86
2022/12/30 00:58:08;;;;;;;1.73;0.93;;;;;;;9.47;96.42;98014.00;4095197;28;20636;-86
2022/12/30 01:00:12;;;;;;;2.17;1.00;;;;;;;9.47;96.52;98018.34;4094615;28;20635;-86
2022/12/30 01:02:15;;;;;;;1.43;0.90;;;;;;;9.48;96.62;98018.25;4087499;28;20628;-86
2022/12/30 01:04:19;;;;;;;2.70;0.90;;;;;;;9.48;96.71;98025.25;4075001;29;20642;-87
2022/12/30 01:06:22;;;;;;;1.83;1.03;;;;;;;9.47;96.96;98023.56;4090852;28;20648;-87
2022/12/30 01:08:25;;;;;;;2.97;0.80;;;;;;;9.46;97.13;98030.53;4106102;28;21071;-87
2022/12/30 01:10:28;;;;;;;1.77;0.80;;;;;;;9.46;97.36;98035.75;4105431;28;20736;-87
2022/12/30 01:12:32;;;;;;;1.20;0.73;;;;;;;9.49;97.08;98040.75;4090172;29;20727;-87
2022/12/30 01:14:36;;;;;;;1.10;0.70;;;;;;;9.51;97.73;98054.50;4078776;29;21315;-87
2022/12/30 01:16:39;;;;;;;1.87;0.70;;;;;;;9.54;96.77;98056.91;4070497;29;20630;-86
2022/12/30 01:18:42;;;;;;;1.30;0.60;;;;;;;9.56;97.15;98069.81;4089478;29;20636;-87
2022/12/30 01:20:45;;;;;;;1.60;0.83;;;;;;;9.57;97.16;98063.69;4105510;28;20743;-86
2022/12/30 01:22:48;;;;;;;1.70;1.03;;;;;;;9.56;97.13;98062.88;4078055;29;20737;-87
2022/12/30 01:24:51;;;;;;;1.30;0.80;;;;;;;9.56;97.01;98064.63;4094539;28;20645;-86
2022/12/30 01:26:54;;;;;;;1.27;0.77;;;;;;;9.54;97.24;98059.50;4107651;28;20705;-86
2022/12/30 01:28:59;;;;;;;1.30;0.60;;;;;;;9.53;96.68;98063.06;4088525;28;20640;-87
2022/12/30 01:31:05;;;;;;;2.37;1.00;;;;;;;9.53;96.85;98064.81;4091249;28;21242;-86
2022/12/30 01:33:08;;;;;;;2.00;0.90;;;;;;;9.52;96.41;98061.38;4089429;28;20664;-87
2022/12/30 01:35:11;;;;;;;1.85;1.00;;;;;;;9.55;96.70;98073.38;4089378;28;21197;-86
2022/12/30 01:37:15;;;;;;;2.90;0.80;;;;;;;9.51;96.12;98062.31;4091279;28;20209;-86
2022/12/30 01:39:18;;;;;;;1.33;0.90;;;;;;;9.44;96.09;98063.66;4075288;29;20669;-86
2022/12/30 01:41:22;;;;;;;1.10;0.70;;;;;;;9.40;95.97;98064.78;4078560;29;21316;-87
2022/12/30 01:43:43;;;;;;;1.60;0.83;;;;;;;9.38;96.35;98071.00;4090375;28;20645;-86
2022/12/30 01:45:49;;;;;;;1.47;0.80;;;;;;;9.38;96.95;98071.00;4072289;29;20742;-86
2022/12/30 01:47:55;;;;;;;3.10;1.00;;;;;;;9.38;96.77;98071.84;4104059;28;20643;-86
2022/12/30 01:50:00;;;;;;;1.55;0.70;;;;;;;9.39;96.54;98075.28;4089309;28;20628;-86
2022/12/30 01:52:06;;;;;;;3.83;1.00;;;;;;;9.39;96.37;98080.50;4085934;29;20779;-86
2022/12/30 01:54:10;;;;;;;1.30;0.77;;;;;;;9.38;96.70;98076.22;4090149;28;20692;-86
2022/12/30 01:56:17;;;;;;;3.10;0.80;;;;;;;9.37;96.20;98074.56;4091929;28;20631;-86
2022/12/30 01:58:23;;;;;;;2.70;1.00;;;;;;;9.37;96.69;98079.75;4092300;28;20741;-86
2022/12/30 02:00:26;;;;;;;1.37;0.60;;;;;;;9.38;96.57;98082.28;4091480;28;20645;-86
2022/12/30 02:02:31;;;;;;;1.53;1.10;;;;;;;9.39;96.77;98083.09;4105426;28;20647;-86
2022/12/30 02:04:35;;;;;;;1.40;0.80;;;;;;;9.39;96.53;98073.50;4088385;28;21121;-86
2022/12/30 02:06:46;;;;;;;1.00;0.60;;;;;;;9.34;96.49;98069.53;4091385;28;20213;-86
2022/12/30 02:08:49;;;;;;;1.90;1.00;;;;;;;9.30;96.50;98069.84;4090128;28;20665;-86
2022/12/30 02:10:54;;;;;;;1.90;0.80;;;;;;;9.26;96.16;98074.41;4105933;28;20264;-86
2022/12/30 02:12:58;;;;;;;1.80;0.93;;;;;;;9.22;95.34;98074.69;4107926;28;20706;-86
2022/12/30 02:15:02;;;;;;;2.50;1.20;;;;;;;9.21;96.46;98080.81;4092890;28;20657;-86
2022/12/30 02:17:11;;;;;;;1.90;0.90;;;;;;;9.14;96.14;98082.13;4093286;28;20637;-86
2022/12/30 02:19:47;;;;;;;1.40;0.90;;;;;;;9.11;96.66;98080.56;4075220;29;20944;-86
2022/12/30 02:21:56;;;;;;;1.47;0.70;;;;;;;9.08;96.53;98079.91;4106741;28;20647;-86
2022/12/30 02:24:37;;;;;;;2.27;1.00;;;;;;;9.04;96.02;98081.06;4094962;28;20665;-87
2022/12/30 02:27:09;;;;;;;1.27;0.70;;;;;;;8.92;94.67;98082.63;4093766;28;20705;-87
2022/12/30 02:29:24;;;;;;;2.30;0.80;;;;;;;8.86;94.70;98089.16;4092883;28;20196;-87
2022/12/30 02:31:43;;;;;;;3.10;0.80;;;;;;;8.79;95.09;98093.06;4090074;28;21035;-87
2022/12/30 02:33:50;;;;;;;1.30;0.70;;;;;;;8.75;95.23;98096.78;4078211;29;20752;-86
2022/12/30 02:35:57;;;;;;;1.00;0.70;;;;;;;8.77;96.54;98097.53;4090845;28;20733;-87
2022/12/30 02:38:06;;;;;;;1.15;0.60;;;;;;;8.77;96.91;98100.97;4107835;28;20653;-87
2022/12/30 02:40:14;;;;;;;2.30;0.93;;;;;;;8.78;96.09;98104.38;4096274;28;20205;-87
2022/12/30 02:44:55;;;;;;;1.80;0.90;;;;;;;8.73;95.73;98106.44;4092883;28;20634;-87
2022/12/30 02:47:02;;;;;;;1.75;0.70;;;;;;;8.75;96.44;98122.75;4107359;28;20209;-87
2022/12/30 02:49:07;;;;;;;3.30;1.10;;;;;;;8.76;96.47;98121.84;4093741;28;20217;-87
2022/12/30 02:53:33;;;;;;;1.90;0.87;;;;;;;8.78;96.40;98131.25;4079574;29;20222;-87
2022/12/30 02:55:36;;;;;;;1.17;0.80;;;;;;;8.69;95.53;98131.78;4110291;28;20683;-87
2022/12/30 02:57:39;;;;;;;1.27;1.00;;;;;;;8.65;94.98;98129.47;4095529;28;20640;-86
2022/12/30 03:04:45;;;;;;;2.80;1.10;;;;;;;8.52;94.65;98116.38;4092407;28;20632;-86
2022/12/30 03:07:03;;;;;;;2.40;1.30;;;;;;;8.48;95.44;98119.25;4093823;28;20209;-87
2022/12/30 03:09:15;;;;;;;3.10;1.03;;;;;;;8.42;94.97;98127.41;4092882;28;20816;-86
2022/12/30 03:11:18;;;;;;;2.00;0.88;;;;;;;8.40;95.18;98134.44;4081346;29;20680;-87
2022/12/30 03:13:24;;;;;;;2.28;0.90;;;;;;;8.36;95.84;98135.56;4073988;29;20225;-87
2022/12/30 03:15:32;;;;;;;2.15;1.25;;;;;;;8.31;96.25;98142.78;4105164;28;20231;-87
2022/12/30 03:17:39;;;;;;;3.05;1.00;;;;;;;8.26;95.89;98125.81;4096160;28;20205;-87
2022/12/30 03:19:44;;;;;;;1.80;1.20;;;;;;;8.21;95.30;98135.59;4110113;28;20661;-87
2022/12/30 03:21:50;;;;;;;1.40;1.00;;;;;;;8.17;95.86;98129.75;4093112;28;20257;-87
2022/12/30 03:28:38;;;;;;;2.03;1.00;;;;;;;8.19;95.85;98122.69;4094385;28;20213;-87
2022/12/30 03:30:45;;;;;;;2.38;0.95;;;;;;;8.22;96.76;98119.09;4091581;28;20641;-87
2022/12/30 03:32:50;;;;;;;1.10;0.80;;;;;;;8.27;97.24;98125.72;4091115;28;20572;-87
2022/12/30 03:34:53;;;;;;;1.85;0.90;;;;;;;8.29;97.92;98136.84;4108304;28;20272;-87
2022/12/30 03:37:00;;;;;;;2.85;1.10;;;;;;;8.25;97.49;98124.94;4080999;29;20859;-86
2022/12/30 03:39:09;;;;;;;2.20;1.10;;;;;;;8.20;96.19;98116.59;4096978;28;20235;-86
2022/12/30 03:41:12;;;;;;;2.65;1.15;;;;;;;8.11;96.62;98117.13;4093957;28;20218;-86
2022/12/30 03:43:16;;;;;;;1.70;0.80;;;;;;;8.11;95.98;98116.28;4094209;29;20216;-86
2022/12/30 03:45:19;;;;;;;3.75;0.90;;;;;;;8.09;96.95;98121.56;4095786;28;20244;-86
2022/12/30 03:47:23;;;;;;;2.20;1.20;;;;;;;8.12;97.39;98115.38;4092755;28;20250;-86
2022/12/30 03:49:27;;;;;;;1.90;0.90;;;;;;;8.12;96.43;98105.00;4109653;28;20213;-86
2022/12/30 03:51:30;;;;;;;1.08;0.73;;;;;;;8.12;97.21;98112.78;4094864;28;20324;-86
2022/12/30 03:53:33;;;;;;;1.70;0.98;;;;;;;8.10;96.84;98117.19;4080720;29;20256;-86
2022/12/30 03:55:36;;;;;;;2.60;1.90;;;;;;;8.09;97.13;98113.75;4076720;29;20202;-86
2022/12/30 03:57:39;;;;;;;1.83;1.00;;;;;;;8.09;96.60;98121.56;4087378;28;20733;-86
2022/12/30 03:59:43;;;;;;;2.47;1.08;;;;;;;8.09;96.61;98120.72;4079028;29;20261;-86
2022/12/30 04:01:46;;;;;;;2.28;1.02;;;;;;;8.08;97.72;98125.06;4092983;28;20206;-86
2022/12/30 04:03:50;;;;;;;1.60;0.90;;;;;;;8.07;97.64;98126.00;4079591;29;20216;-87
2022/12/30 04:05:55;;;;;;;2.45;0.93;;;;;;;8.01;96.06;98123.75;4073891;29;20270;-87
2022/12/30 04:07:59;;;;;;;1.30;0.88;;;;;;;7.97;95.71;98121.44;4087685;28;20289;-86
2022/12/30 04:10:03;;;;;;;1.35;0.90;;;;;;;7.92;96.86;98120.00;4089611;28;20205;-86
2022/12/30 04:12:06;;;;;;;4.00;1.30;;;;;;;7.89;96.76;98120.19;4092467;28;20213;-86
2022/12/30 04:14:10;;;;;;;3.00;1.17;;;;;;;7.86;95.70;98117.75;4092816;29;20274;-86
2022/12/30 04:16:13;;;;;;;2.90;1.10;;;;;;;7.83;96.16;98112.75;4088322;28;20632;-87
2022/12/30 04:18:17;;;;;;;1.50;1.10;;;;;;;7.86;96.02;98120.38;4093269;28;20636;-86
2022/12/30 04:20:20;;;;;;;1.75;1.20;;;;;;;7.86;95.36;98113.41;4105561;28;20259;-86
2022/12/30 04:22:24;;;;;;;2.08;1.00;;;;;;;7.81;95.30;98117.19;4107897;28;20205;-86
2022/12/30 04:24:28;;;;;;;1.70;1.00;;;;;;;7.76;95.35;98119.22;4106928;28;20316;-87
2022/12/30 04:26:31;;;;;;;3.55;1.35;;;;;;;7.68;95.25;98111.88;4091824;29;20213;-87
2022/12/30 04:28:34;;;;;;;1.75;1.02;;;;;;;7.64;93.59;98107.78;4106330;28;20223;-87
2022/12/30 04:30:37;;;;;;;1.75;1.20;;;;;;;7.57;92.26;98108.19;4090827;28;20210;-86
2022/12/30 04:32:40;;;;;;;2.70;1.50;;;;;;;7.49;92.62;98100.03;4089373;28;20205;-86
2022/12/30 04:34:43;;;;;;;2.55;1.60;;;;;;;7.43;93.01;98108.16;4093933;28;20267;-86
2022/12/30 04:36:47;;;;;;;2.25;1.38;;;;;;;7.41;92.65;98107.38;4092936;28;20703;-86
2022/12/30 04:38:51;;;;;;;1.42;1.00;;;;;;;7.38;92.88;98112.75;4073777;29;20222;-86
2022/12/30 04:40:54;;;;;;;3.13;1.40;;;;;;;7.38;94.34;98111.91;4093701;28;20248;-86
2022/12/30 04:42:57;;;;;;;2.10;1.38;;;;;;;7.34;93.65;98113.84;4093046;28;20240;-86
2022/12/30 04:45:00;;;;;;;2.88;1.40;;;;;;;7.31;94.64;98113.19;4075206;29;20220;-87
2022/12/30 04:47:05;;;;;;;1.90;1.40;;;;;;;7.26;94.94;98103.06;4075965;29;20224;-86
2022/12/30 04:49:08;;;;;;;1.52;1.20;;;;;;;7.25;94.90;98111.75;4074968;28;20206;-86
2022/12/30 04:51:11;;;;;;;2.78;1.40;;;;;;;7.24;94.08;98115.25;4091833;28;20194;-87
2022/12/30 04:53:14;;;;;;;2.35;1.20;;;;;;;7.18;92.32;98114.75;4094829;28;20593;-86
2022/12/30 04:55:19;;;;;;;2.45;1.60;;;;;;;7.13;92.71;98109.00;4106470;28;20274;-87
2022/12/30 04:57:22;;;;;;;2.60;1.40;;;;;;;7.10;92.95;98112.59;4091680;28;20213;-87
2022/12/30 04:59:25;;;;;;;2.47;1.63;;;;;;;7.08;93.33;98116.16;4078769;29;20219;-87
2022/12/30 05:01:28;;;;;;;2.47;1.60;;;;;;;7.05;93.40;98109.41;4103297;28;20319;-86
2022/12/30 05:03:32;;;;;;;3.80;2.15;;;;;;;7.03;92.92;98107.81;4108844;28;20211;-86
2022/12/30 05:05:36;;;;;;;1.88;1.65;;;;;;;7.01;93.76;98117.44;4090324;28;20725;-86
2022/12/30 05:07:39;;;;;;;2.65;1.77;;;;;;;6.96;92.92;98098.72;4090875;28;20252;-86
2022/12/30 05:09:42;;;;;;;4.05;2.30;;;;;;;6.98;93.18;98107.22;4087672;28;20409;-86
2022/12/30 05:11:47;;;;;;;2.05;1.80;;;;;;;6.97;92.49;98117.69;4075584;29;20214;-86
2022/12/30 05:13:50;;;;;;;2.10;1.80;;;;;;;6.91;92.56;98120.59;4092256;28;20766;-86
2022/12/30 05:15:53;;;;;;;1.90;1.63;;;;;;;6.87;92.63;98117.34;4089770;28;20232;-86
2022/12/30 05:17:56;;;;;;;2.10;1.88;;;;;;;6.81;92.32;98114.22;4104006;28;20679;-86
2022/12/30 05:19:59;;;;;;;2.63;2.08;;;;;;;6.78;93.37;98109.19;4095245;28;20271;-86
2022/12/30 05:22:03;;;;;;;4.25;2.03;;;;;;;6.68;92.74;98102.84;4094386;28;20201;-86
2022/12/30 05:26:26;;;;;;;8.23;2.28;;;;;;;6.43;92.63;98092.09;4078764;29;20596;-86
2022/12/30 05:28:30;;;;;;;7.72;1.83;;;;;;;6.37;93.73;98087.22;4088825;28;20307;-86
2022/12/30 05:30:33;;;;;;;3.22;1.90;;;;;;;6.35;92.97;98091.66;4076273;29;20617;-86
2022/12/30 05:32:36;;;;;;;2.70;2.30;;;;;;;6.26;93.25;98089.53;4094074;28;20210;-86
2022/12/30 05:34:39;;;;;;;5.20;2.70;;;;;;;6.23;93.64;98091.47;4091202;28;20288;-86
2022/12/30 05:36:43;;;;;;;3.25;2.53;;;;;;;6.17;93.09;98095.19;4076979;29;20210;-86
2022/12/30 05:38:46;;;;;;;3.28;2.38;;;;;;;6.12;93.73;98092.00;4090456;28;20870;-86
2022/12/30 05:40:50;;;;;;;2.97;2.10;;;;;;;6.12;93.07;98096.34;4104841;28;20205;-86
2022/12/30 05:42:53;;;;;;;2.25;1.95;;;;;;;6.09;92.71;98091.34;4093089;28;20586;-86
2022/12/30 05:44:58;;;;;;;2.05;1.70;;;;;;;6.09;92.53;98086.97;4095666;28;20246;-86
2022/12/30 05:47:01;;;;;;;2.65;1.95;;;;;;;6.06;92.08;98091.47;4088356;29;20213;-86
2022/12/30 05:49:04;;;;;;;8.57;2.20;;;;;;;6.07;92.15;98094.91;4087789;28;20220;-86
2022/12/30 05:51:07;;;;;;;2.35;2.15;;;;;;;5.99;92.34;98089.28;4088398;28;20205;-86
2022/12/30 05:53:10;;;;;;;6.00;2.45;;;;;;;5.96;92.47;98094.59;4092732;28;20735;-86
2022/12/30 05:55:14;;;;;;;3.45;2.15;;;;;;;5.93;93.19;98105.13;4106751;28;20221;-86
2022/12/30 05:57:17;;;;;;;3.40;2.08;;;;;;;5.90;93.04;98103.50;4104741;28;20208;-86
2022/12/30 05:59:20;;;;;;;5.18;2.63;;;;;;;5.86;92.75;98109.72;4092664;28;20211;-86
2022/12/30 06:01:25;;;;;;;2.60;1.98;;;;;;;5.82;92.57;98107.41;4088818;29;20232;-86
2022/12/30 06:03:28;;;;;;;5.55;2.17;;;;;;;5.79;92.44;98113.56;4075723;29;20229;-86
2022/12/30 06:05:32;;;;;;;8.77;2.30;;;;;;;5.78;92.37;98113.63;4092665;28;20207;-86
2022/12/30 06:07:35;;;;;;;4.85;2.78;;;;;;;5.75;92.33;98116.38;4090380;28;20288;-86
2022/12/30 06:09:38;;;;;;;3.22;2.38;;;;;;;5.71;92.08;98114.81;4092522;28;20593;-86
2022/12/30 06:11:41;;;;;;;2.45;2.05;;;;;;;5.69;92.07;98112.28;4088086;28;21687;-86
2022/12/30 06:13:44;;;;;;;4.68;2.00;;;;;;;5.67;91.98;98103.78;4090676;28;20222;-86
2022/12/30 06:15:47;;;;;;;6.93;2.50;;;;;;;5.63;91.29;98107.41;4103817;28;20732;-86
2022/12/30 06:17:51;;;;;;;4.97;2.30;;;;;;;5.60;91.22;98096.38;4074267;29;20658;-86
2022/12/30 06:19:55;;;;;;;4.32;2.58;;;;;;;5.57;91.11;98088.78;4088558;28;20678;-86
2022/12/30 06:21:58;;;;;;;2.17;1.98;;;;;;;5.55;91.13;98093.19;4091588;28;20714;-86
2022/12/30 06:24:01;;;;;;;7.28;2.50;;;;;;;5.52;91.16;98097.66;4086324;28;20217;-85
2022/12/30 06:26:04;;;;;;;2.72;2.45;;;;;;;5.49;91.61;98102.97;4106032;28;21188;-86
2022/12/30 06:28:07;;;;;;;3.55;2.30;;;;;;;5.47;91.23;98107.41;4093701;28;20737;-86
2022/12/30 06:30:11;;;;;;;4.75;2.58;;;;;;;5.48;91.24;98096.97;4089214;28;20262;-86
2022/12/30 06:32:15;;;;;;;6.65;2.30;;;;;;;5.43;90.66;98114.47;4089136;28;20215;-86
2022/12/30 06:34:19;;;;;;;5.60;2.10;;;;;;;5.41;91.20;98110.28;4092303;28;20204;-86
2022/12/30 06:36:22;;;;;;;5.68;2.22;;;;;;;5.38;91.15;98102.66;4092429;28;20234;-86
2022/12/30 06:38:25;;;;;;;2.38;1.85;;;;;;;5.35;90.93;98111.41;4072697;29;20208;-86
2022/12/30 06:40:28;;;;;;;3.25;2.40;;;;;;;5.32;91.46;98115.88;4072676;29;20216;-86
2022/12/30 06:42:31;;;;;;;2.72;2.38;;;;;;;5.32;91.17;98115.88;4091005;28;22265;-86
2022/12/30 06:44:35;;;;;;;2.05;1.75;;;;;;;5.28;91.30;98115.19;4106731;28;20205;-86
2022/12/30 06:46:38;;;;;;;5.05;2.30;;;;;;;5.26;91.44;98111.00;4090387;28;20203;-86
2022/12/30 06:48:42;;;;;;;2.25;2.05;;;;;;;5.19;90.73;98107.88;4089199;28;20215;-86
2022/12/30 06:50:46;;;;;;;2.72;2.03;;;;;;;5.18;91.30;98108.78;4092459;28;20215;-86
2022/12/30 06:52:49;;;;;;;2.92;2.45;;;;;;;5.18;90.83;98103.59;4074915;29;20302;-87
2022/12/30 06:54:52;;;;;;;3.30;2.10;;;;;;;5.20;91.14;98104.38;4072571;29;20226;-86
2022/12/30 06:56:55;;;;;;;4.63;2.40;;;;;;;5.19;91.91;98105.28;4094159;28;20260;-87
2022/12/30 06:58:58;;;;;;;3.42;2.45;;;;;;;5.19;92.19;98112.22;4092677;28;20275;-86
2022/12/30 07:01:01;;;;;;;3.88;2.38;;;;;;;5.15;91.70;98103.75;4093456;28;20298;-86
2022/12/30 07:03:05;;;;;;;4.32;2.78;;;;;;;5.11;91.88;98105.72;4087668;28;20219;-86
2022/12/30 07:05:08;;;;;;;3.15;2.67;;;;;;;5.10;91.01;98104.03;4089583;28;20249;-86
2022/12/30 07:07:13;;;;;;;4.22;3.30;;;;;;;5.05;91.39;98098.25;4090055;28;20284;-87
2022/12/30 07:09:17;;;;;;;3.08;2.42;;;;;;;5.02;91.42;98095.81;4092081;28;20222;-88
2022/12/30 07:11:20;;;;;;;3.20;2.60;;;;;;;4.99;90.65;98085.59;4108447;28;20206;-87
2022/12/30 07:13:23;;;;;;;7.55;2.75;;;;;;;4.99;90.57;98095.94;4096392;28;20203;-89
2022/12/30 07:15:26;;;;;;;5.72;2.40;;;;;;;4.98;90.23;98096.88;4103309;28;20221;-88
2022/12/30 07:17:30;;;;;;;6.20;2.72;;;;;;;4.98;90.30;98100.28;4107423;28;20294;-89
2022/12/30 07:19:34;;;;;;;8.07;3.00;;;;;;;4.98;90.85;98092.53;4090309;28;20678;-88
2022/12/30 07:21:38;;;;;;;6.05;2.33;;;;;;;4.96;91.58;98101.25;4092846;28;20219;-88
2022/12/30 07:23:43;;;;;;;8.27;2.85;;;;;;;4.96;91.91;98101.25;4110669;28;20228;-88
2022/12/30 07:25:46;;;;;;;7.03;2.30;;;;;;;4.99;91.08;98096.81;4091287;28;20667;-88
2022/12/30 07:27:49;;;;;;;7.80;2.65;;;;;;;4.99;92.21;98095.94;4093079;28;20211;-89
2022/12/30 07:29:53;;;;;;;3.67;1.85;;;;;;;4.99;91.02;98106.28;4107878;28;20203;-88
2022/12/30 07:31:57;;;;;;;8.13;2.75;;;;;;;4.98;91.80;98104.63;4104902;28;20626;-88
2022/12/30 07:34:00;;;;;;;7.13;2.90;;;;;;;4.97;91.87;98116.69;4091090;28;20208;-88
2022/12/30 07:36:03;;;;;;;10.13;2.92;;;;;;;5.00;91.80;98126.06;4092737;28;20761;-88
2022/12/30 07:38:06;;;;;;;7.13;2.20;;;;;;;5.00;91.12;98126.06;4089178;28;20302;-86
2022/12/30 07:40:11;;;;;;;7.63;2.08;;;;;;;4.98;90.96;98117.53;4093216;28;20207;-86
2022/12/30 07:42:14;;;;;;;5.40;2.47;;;;;;;4.94;90.57;98110.84;4093365;28;20231;-86
2022/12/30 07:44:18;;;;;;;6.95;2.50;;;;;;;4.96;90.68;98119.34;4090651;28;20245;-86
2022/12/30 07:46:21;;;;;;;4.93;2.40;;;;;;;4.92;91.57;98116.06;4104523;28;20572;-86
2022/12/30 07:48:24;;;;;;;4.38;2.53;;;;;;;4.93;91.43;98122.91;4092303;28;20305;-87
2022/12/30 07:50:27;;;;;;;3.30;2.70;;;;;;;4.97;91.78;98119.28;4111176;28;20635;-87
2022/12/30 07:52:30;;;;;;;3.55;2.35;;;;;;;4.99;91.75;98122.63;4109267;28;20230;-88
2022/12/30 07:54:33;;;;;;;3.05;2.40;;;;;;;5.07;91.69;98119.72;4091994;28;20211;-87
2022/12/30 07:56:38;;;;;;;3.30;2.58;;;;;;;5.19;91.05;98115.63;4092609;28;20597;-90
2022/12/30 07:58:41;;;;;;;13.32;2.55;;;;;;;5.30;90.89;98117.72;4106760;28;20712;-89
2022/12/30 08:00:44;;;;;;;7.38;2.97;;;;;;;5.39;91.30;98118.09;4104784;28;20203;-89
2022/12/30 08:02:47;;;;;;;8.35;3.35;;;;;;;5.41;90.54;98118.88;4094807;28;20211;-89
2022/12/30 08:04:51;;;;;;;7.68;2.85;;;;;;;5.40;91.30;98117.19;4094386;28;20702;-90
2022/12/30 08:06:55;;;;;;;9.52;3.30;;;;;;;5.41;90.87;98105.09;4092169;28;20211;-89
2022/12/30 08:08:58;;;;;;;9.80;2.60;;;;;;;5.43;90.16;98109.31;4093891;28;20803;-90
2022/12/30 08:11:02;;;;;;;10.23;3.38;;;;;;;5.48;90.40;98101.31;4089611;28;20213;-89
2022/12/30 08:13:07;;;;;;;12.05;4.10;;;;;;;5.54;91.41;98103.63;4078771;29;20297;-89
2022/12/30 08:15:11;;;;;;;17.52;4.45;;;;;;;5.59;91.78;98107.63;4108261;28;20351;-89
2022/12/30 08:17:14;;;;;;;10.57;5.10;;;;;;;5.63;91.56;98104.00;4094683;28;20277;-89
2022/12/30 08:19:17;;;;;;;15.55;3.33;;;;;;;5.66;91.47;98101.25;4093113;28;20282;-89
2022/12/30 08:21:21;;;;;;;16.60;3.47;;;;;;;5.66;91.54;98103.84;4109256;28;20253;-89
2022/12/30 08:23:25;;;;;;;27.02;5.05;;;;;;;5.68;91.57;98104.59;4106462;28;20214;-89
2022/12/30 08:25:28;;;;;;;14.65;3.70;;;;;;;5.68;91.72;98105.47;4098741;28;20252;-89
2022/12/30 08:27:32;;;;;;;18.10;4.70;;;;;;;5.72;92.21;98104.38;4091968;28;20717;-92
2022/12/30 08:29:37;;;;;;;20.48;4.40;;;;;;;5.76;92.33;98113.72;4092527;28;20275;-90
2022/12/30 08:31:40;;;;;;;34.83;4.85;;;;;;;5.74;92.48;98107.78;4089710;28;20283;-92
2022/12/30 08:33:45;;;;;;;18.17;4.00;;;;;;;5.77;93.10;98114.53;4106393;28;20314;-93
2022/12/30 08:35:48;;;;;;;9.95;4.00;;;;;;;5.77;92.42;98115.38;4097118;28;20213;-94
2022/12/30 08:37:51;;;;;;;22.58;4.68;;;;;;;5.77;92.53;98112.81;4089714;28;20307;-88
2022/12/30 08:39:54;;;;;;;31.55;4.90;;;;;;;5.76;92.28;98105.13;4091233;28;20698;-92
2022/12/30 08:41:57;;;;;;;17.30;4.45;;;;;;;5.79;92.49;98110.13;4091337;28;20203;-92
2022/12/30 08:44:01;;;;;;;25.40;4.65;;;;;;;5.86;92.77;98109.72;4092403;28;20213;-92
2022/12/30 08:46:07;;;;;;;35.33;5.22;;;;;;;5.88;93.31;98089.81;4089489;28;20630;-92
2022/12/30 08:48:10;;;;;;;22.08;4.28;;;;;;;5.97;93.03;98101.44;4077558;29;20222;-93
2022/12/30 08:50:17;;;;;;;11.52;3.28;;;;;;;5.99;93.76;98091.88;4090942;28;20200;-91
2022/12/30 08:52:20;;;;;;;21.77;4.55;;;;;;;6.08;94.15;98083.66;4074904;29;20216;-92
2022/12/30 08:54:23;;;;;;;16.25;3.80;;;;;;;6.17;94.41;98092.59;4113553;28;20548;-91
2022/12/30 08:56:28;;;;;;;8.52;3.90;;;;;;;6.28;93.96;98087.69;4097879;28;20199;-91
2022/12/30 08:58:32;;;;;;;7.38;3.75;;;;;;;6.32;94.11;98091.81;4073395;29;20215;-88
2022/12/30 09:00:35;;;;;;;11.30;4.85;;;;;;;6.37;93.51;98089.81;4089092;28;20238;-89
2022/12/30 09:02:40;;;;;;;4.22;3.70;;;;;;;6.46;92.87;98085.91;4071512;29;20599;-92
2022/12/30 09:04:43;;;;;;;3.70;3.13;;;;;;;6.52;93.01;98075.25;4090234;28;20223;-93
2022/12/30 09:06:46;;;;;;;5.50;3.80;;;;;;;6.61;93.47;98083.34;4096721;28;20207;-95
2022/12/30 09:08:50;;;;;;;5.57;3.90;;;;;;;6.64;92.31;98076.25;4084149;28;20252;-87
2022/12/30 09:10:58;;;;;;;5.68;4.15;;;;;;;6.73;92.21;98077.53;4071994;29;20214;-88
2022/12/30 09:13:01;;;;;;;4.22;2.88;;;;;;;6.78;92.75;98075.50;4090334;28;20204;-91
2022/12/30 09:15:07;;;;;;;5.97;3.05;;;;;;;6.88;93.65;98072.34;4078942;29;20214;-96
2022/12/30 09:17:11;;;;;;;5.45;3.35;;;;;;;7.02;93.50;98075.03;4088656;28;20721;-94
2022/12/30 09:19:16;;;;;;;4.20;3.28;;;;;;;7.13;93.58;98076.13;4088344;28;20223;-91
2022/12/30 09:21:23;;;;;;;3.42;3.03;;;;;;;7.20;93.40;98085.25;4090400;28;20349;-91
2022/12/30 09:23:27;;;;;;;4.25;3.53;;;;;;;7.32;93.46;98073.34;4093151;28;20205;-92
2022/12/30 09:25:30;;;;;;;5.18;4.13;;;;;;;7.41;92.05;98071.06;4107274;28;20239;-87
2022/12/30 09:27:34;;;;;;;7.70;5.43;;;;;;;7.55;92.00;98076.31;4090570;28;20217;-91
2022/12/30 09:29:37;;;;;;;6.40;4.65;;;;;;;7.64;92.62;98083.59;4073041;29;20293;-90
2022/12/30 09:31:41;;;;;;;4.88;3.70;;;;;;;7.73;92.01;98077.88;4107242;28;20211;-93
2022/12/30 09:33:44;;;;;;;5.45;3.70;;;;;;;7.81;92.32;98068.72;4106369;28;20213;-89
2022/12/30 09:35:49;;;;;;;7.53;5.15;;;;;;;7.89;92.75;98079.47;4085336;29;20208;-90
2022/12/30 09:37:52;;;;;;;5.70;3.97;;;;;;;7.97;93.20;98085.91;4078185;29;20661;-91
2022/12/30 09:39:56;;;;;;;4.85;3.40;;;;;;;7.97;91.57;98078.13;4089250;28;20213;-92
2022/12/30 09:44:29;;;;;;;6.40;3.88;;;;;;;8.06;91.89;98069.78;4092679;28;20298;-94
2022/12/30 09:46:41;;;;;;;5.57;4.40;;;;;;;8.15;91.89;98068.47;4080961;29;20263;-93
2022/12/30 09:48:49;;;;;;;12.45;9.80;;;;;;;8.24;92.66;98068.75;4088876;28;20279;-96
2022/12/30 09:50:59;;;;;;;8.65;4.63;;;;;;;8.27;92.11;98071.16;4104810;28;20212;-93
2022/12/30 09:53:06;;;;;;;4.38;3.90;;;;;;;8.36;92.84;98062.81;4091063;28;20218;-92
2022/12/30 09:55:12;;;;;;;4.22;3.70;;;;;;;8.39;92.73;98054.84;4089601;28;20239;-93
2022/12/30 09:57:31;;;;;;;5.20;3.70;;;;;;;8.46;91.56;98050.91;4078373;29;20618;-94
2022/12/30 09:59:36;;;;;;;4.03;3.63;;;;;;;8.51;91.80;98039.34;4075906;29;20217;-93
2022/12/30 10:01:43;;;;;;;4.78;4.13;;;;;;;8.57;91.94;98032.94;4077138;29;20214;-89
2022/12/30 10:03:46;;;;;;;8.40;7.22;;;;;;;8.68;92.39;98020.94;4093308;28;20233;-89
2022/12/30 10:06:13;;;;;;;6.90;6.20;;;;;;;8.80;92.45;98020.16;4092925;29;20674;-94
2022/12/30 10:08:26;;;;;;;13.35;7.18;;;;;;;8.91;93.09;98009.09;4091299;28;20200;-90
2022/12/30 10:10:35;;;;;;;4.63;3.08;;;;;;;9.01;93.51;98009.25;4092907;28;20241;-93
2022/12/30 10:12:46;;;;;;;2.67;1.97;;;;;;;9.21;91.55;98011.41;4097485;28;20201;-91
2022/12/30 10:14:59;;;;;;;2.10;0.98;;;;;;;9.36;90.37;98000.00;4107003;28;20706;-93
2022/12/30 10:17:12;;;;;;;1.93;1.07;;;;;;;9.54;91.13;98001.41;4100052;28;20296;-93
2022/12/30 10:19:22;;;;;;;2.73;1.40;;;;;;;9.71;90.71;97995.91;4093772;28;20631;-93
2022/12/30 10:21:37;;;;;;;3.83;1.40;;;;;;;9.92;91.03;97990.97;4090405;28;21242;-92
2022/12/30 10:23:50;;;;;;;1.80;0.90;;;;;;;10.05;88.75;97989.22;4069917;29;20210;-93
2022/12/30 10:25:59;;;;;;;2.63;1.55;;;;;;;10.20;88.89;97985.56;4100396;28;21225;-92
2022/12/30 10:28:03;;;;;;;3.33;1.60;;;;;;;10.31;89.62;97980.44;4090002;28;20232;-91
2022/12/30 10:30:15;;;;;;;4.40;3.00;;;;;;;10.45;89.42;97980.34;4091332;28;20678;-88
2022/12/30 10:32:20;;;;;;;2.80;1.60;;;;;;;10.46;87.36;97971.56;4087079;28;20636;-88
2022/12/30 10:34:28;;;;;;;2.93;1.90;;;;;;;10.53;87.65;97968.41;4089252;28;21260;-92
2022/12/30 10:36:39;;;;;;;1.80;1.00;;;;;;;10.66;89.07;97963.16;4103251;28;20631;-90
2022/12/30 10:38:42;;;;;;;1.37;0.70;;;;;;;10.69;87.16;97962.94;4069415;29;20697;-90
2022/12/30 10:40:52;;;;;;;2.60;1.00;;;;;;;10.74;86.39;97960.88;4100224;28;21114;-96
2022/12/30 10:43:19;;;;;;;2.60;1.00;;;;;;;10.76;84.89;97970.25;4092815;28;20657;-91
2022/12/30 10:45:34;;;;;;;1.87;1.20;;;;;;;10.77;86.58;97974.53;4070517;29;20649;-90
2022/12/30 10:47:47;;;;;;;2.23;0.90;;;;;;;10.81;84.94;97968.97;4090482;28;20739;-92
2022/12/30 10:50:00;;;;;;;2.70;1.10;;;;;;;10.86;84.70;97966.88;4088906;28;20675;-88
2022/12/30 10:52:08;;;;;;;2.03;1.10;;;;;;;10.81;84.85;97962.94;4090625;28;20706;-89